Terminal Aerodrome Forecast
Issued by NWS

Home | Current Version | Previous Version | Text Only | Print | Product List | Glossary On
Versions: 1 2 3 4 5 6 7 8 9 10 11 12
000
FTUS42 KGSP 221133
TAFHKY
TAF
KHKY 221133Z 2212/2312 00000KT P6SM SCT250
     FM221500 14007KT P6SM BKN150
     FM222100 11006KT P6SM OVC060 PROB30 2301/2303 4SM -RA OVC025
     FM230300 10006KT P6SM OVC030 PROB30 2303/2309 4SM -RA OVC015
     FM230900 09008KT P6SM -RA OVC015=

USA.gov is the U.S. government's official web portal to all federal, state and local government web resources and services.